createdAt,value
2023-04-30T00:00:34.651Z,94761.00
2023-04-30T00:01:34.644Z,94761.00
2023-04-30T00:02:34.934Z,94761.00
2023-04-30T00:03:34.757Z,94759.00
2023-04-30T00:04:34.683Z,94759.00
2023-04-30T00:05:34.696Z,94759.00
2023-04-30T00:06:34.736Z,94757.00
2023-04-30T00:07:34.692Z,94757.00
2023-04-30T00:08:34.703Z,94759.00
2023-04-30T00:09:34.709Z,94759.00
2023-04-30T00:10:34.724Z,94761.00
2023-04-30T00:11:34.723Z,94759.00
2023-04-30T00:12:34.713Z,94763.00
2023-04-30T00:13:34.710Z,94765.00
2023-04-30T00:14:34.710Z,94763.00
2023-04-30T00:15:34.726Z,94765.00
2023-04-30T00:16:34.779Z,94767.00
2023-04-30T00:17:34.802Z,94763.00
2023-04-30T00:18:34.706Z,94767.00
2023-04-30T00:19:34.694Z,94765.00
2023-04-30T00:20:34.718Z,94765.00
2023-04-30T00:21:34.754Z,94767.00
2023-04-30T00:22:34.700Z,94767.00
2023-04-30T00:23:34.702Z,94765.00
2023-04-30T00:24:34.676Z,94767.00
2023-04-30T00:25:34.710Z,94767.00
2023-04-30T00:26:34.669Z,94769.00
2023-04-30T00:27:34.734Z,94767.00
2023-04-30T00:28:34.650Z,94767.00
2023-04-30T00:29:34.667Z,94765.00
2023-04-30T00:30:34.708Z,94767.00
2023-04-30T00:31:34.671Z,94767.00
2023-04-30T00:32:34.675Z,94767.00
2023-04-30T00:33:34.653Z,94765.00
2023-04-30T00:34:34.672Z,94765.00
2023-04-30T00:35:34.701Z,94765.00
2023-04-30T00:36:34.648Z,94769.00
2023-04-30T00:37:34.686Z,94767.00
2023-04-30T00:38:34.664Z,94771.00
2023-04-30T00:39:34.662Z,94771.00
2023-04-30T00:40:34.671Z,94773.00
2023-04-30T00:41:34.693Z,94773.00
2023-04-30T00:42:34.663Z,94771.00
2023-04-30T00:43:34.658Z,94773.00
2023-04-30T00:44:34.684Z,94771.00
2023-04-30T00:45:34.685Z,94775.00
2023-04-30T00:46:34.686Z,94775.00
2023-04-30T00:47:34.698Z,94775.00
2023-04-30T00:48:34.680Z,94773.00
2023-04-30T00:49:34.642Z,94771.00
2023-04-30T00:50:34.662Z,94773.00
2023-04-30T00:51:34.681Z,94771.00
2023-04-30T00:52:34.649Z,94771.00
2023-04-30T00:53:34.663Z,94773.00
2023-04-30T00:54:34.677Z,94769.00
2023-04-30T00:55:34.656Z,94771.00
2023-04-30T00:56:34.644Z,94773.00
2023-04-30T00:57:34.639Z,94771.00
2023-04-30T00:58:34.643Z,94773.00
2023-04-30T00:59:34.619Z,94769.00
2023-04-30T01:00:34.645Z,94771.00
2023-04-30T01:01:34.672Z,94771.00
2023-04-30T01:02:34.695Z,94769.00
2023-04-30T01:03:34.700Z,94767.00
2023-04-30T01:04:34.604Z,94767.00
2023-04-30T01:05:34.624Z,94763.00
2023-04-30T01:06:34.655Z,94767.00
2023-04-30T01:07:34.616Z,94765.00
2023-04-30T01:08:34.608Z,94765.00
2023-04-30T01:09:34.610Z,94765.00
2023-04-30T01:10:34.612Z,94767.00
2023-04-30T01:11:34.587Z,94769.00
2023-04-30T01:12:34.615Z,94765.00
2023-04-30T01:13:34.598Z,94763.00
2023-04-30T01:14:34.589Z,94765.00
2023-04-30T01:15:34.632Z,94765.00
2023-04-30T01:16:34.607Z,94767.00
2023-04-30T01:17:34.560Z,94769.00
2023-04-30T01:18:34.732Z,94767.00
2023-04-30T01:19:34.590Z,94769.00
2023-04-30T01:20:34.551Z,94767.00
2023-04-30T01:21:35.233Z,94767.00
2023-04-30T01:22:34.561Z,94769.00
2023-04-30T01:23:34.563Z,94765.00
2023-04-30T01:24:34.580Z,94767.00
2023-04-30T01:25:34.548Z,94767.00
2023-04-30T01:26:34.556Z,94765.00
2023-04-30T01:27:34.548Z,94763.00
2023-04-30T01:28:34.541Z,94761.00
2023-04-30T01:29:34.566Z,94761.00
2023-04-30T01:30:34.523Z,94763.00
2023-04-30T01:31:34.670Z,94763.00
2023-04-30T01:32:34.541Z,94763.00
2023-04-30T01:33:34.533Z,94763.00
2023-04-30T01:34:34.531Z,94763.00
2023-04-30T01:35:34.524Z,94763.00
2023-04-30T01:36:35.207Z,94759.00
2023-04-30T01:37:34.556Z,94759.00
2023-04-30T01:38:34.522Z,94759.00
2023-04-30T01:39:34.546Z,94759.00
2023-04-30T01:40:34.552Z,94761.00
2023-04-30T01:41:34.558Z,94763.00
2023-04-30T01:42:34.549Z,94763.00
2023-04-30T01:43:34.504Z,94765.00
2023-04-30T01:44:34.509Z,94767.00
2023-04-30T01:45:34.501Z,94765.00
2023-04-30T01:46:34.576Z,94769.00
2023-04-30T01:47:34.528Z,94771.00
2023-04-30T01:48:34.508Z,94769.00
2023-04-30T01:49:34.509Z,94773.00
2023-04-30T01:50:34.495Z,94771.00
2023-04-30T01:51:34.513Z,94771.00
2023-04-30T01:52:34.522Z,94773.00
2023-04-30T01:53:34.484Z,94773.00
2023-04-30T01:54:34.512Z,94773.00
2023-04-30T01:55:34.488Z,94775.00
2023-04-30T01:56:34.508Z,94771.00
2023-04-30T01:57:34.487Z,94773.00
2023-04-30T01:58:34.525Z,94773.00
2023-04-30T01:59:34.502Z,94773.00
2023-04-30T02:00:34.510Z,94771.00
2023-04-30T02:01:34.565Z,94773.00
2023-04-30T02:02:34.572Z,94771.00
2023-04-30T02:03:34.641Z,94769.00
2023-04-30T02:04:34.511Z,94769.00
2023-04-30T02:05:34.560Z,94769.00
2023-04-30T02:06:34.590Z,94769.00
2023-04-30T02:07:34.523Z,94767.00
2023-04-30T02:08:34.547Z,94769.00
2023-04-30T02:09:34.545Z,94769.00
2023-04-30T02:10:34.542Z,94771.00
2023-04-30T02:11:34.544Z,94771.00
2023-04-30T02:12:34.543Z,94773.00
2023-04-30T02:13:34.547Z,94771.00
2023-04-30T02:14:34.555Z,94771.00
2023-04-30T02:15:34.589Z,94771.00
2023-04-30T02:16:34.708Z,94771.00
2023-04-30T02:17:34.574Z,94771.00
2023-04-30T02:18:34.568Z,94771.00
2023-04-30T02:19:34.604Z,94773.00
2023-04-30T02:20:34.593Z,94773.00
2023-04-30T02:21:34.608Z,94775.00
2023-04-30T02:22:34.606Z,94775.00
2023-04-30T02:23:34.600Z,94777.00
2023-04-30T02:24:34.604Z,94777.00
2023-04-30T02:25:34.623Z,94777.00
2023-04-30T02:26:34.633Z,94777.00
2023-04-30T02:27:34.665Z,94779.00
2023-04-30T02:28:34.657Z,94779.00
2023-04-30T02:29:34.660Z,94781.00
2023-04-30T02:30:34.641Z,94781.00
2023-04-30T02:31:34.784Z,94783.00
2023-04-30T02:32:34.696Z,94781.00
2023-04-30T02:33:34.675Z,94781.00
2023-04-30T02:34:34.745Z,94783.00
2023-04-30T02:35:34.711Z,94783.00
2023-04-30T02:36:34.673Z,94783.00
2023-04-30T02:37:34.707Z,94783.00
2023-04-30T02:38:34.708Z,94783.00
2023-04-30T02:39:34.707Z,94783.00
2023-04-30T02:40:34.730Z,94781.00
2023-04-30T02:41:34.733Z,94781.00
2023-04-30T02:42:34.742Z,94781.00
2023-04-30T02:43:34.707Z,94779.00
2023-04-30T02:44:34.737Z,94781.00
2023-04-30T02:45:34.820Z,94779.00
2023-04-30T02:46:34.762Z,94777.00
2023-04-30T02:47:34.828Z,94777.00
2023-04-30T02:48:34.778Z,94775.00
2023-04-30T02:49:34.768Z,94775.00
2023-04-30T02:50:34.772Z,94775.00
2023-04-30T02:51:34.809Z,94773.00
2023-04-30T02:52:34.779Z,94771.00
2023-04-30T02:53:34.773Z,94775.00
2023-04-30T02:54:34.806Z,94771.00
2023-04-30T02:55:34.845Z,94771.00
2023-04-30T02:56:34.821Z,94771.00
2023-04-30T02:57:34.819Z,94771.00
2023-04-30T02:58:34.834Z,94769.00
2023-04-30T02:59:34.857Z,94769.00
2023-04-30T03:00:34.847Z,94769.00
2023-04-30T03:01:34.865Z,94769.00
2023-04-30T03:02:35.037Z,94769.00
2023-04-30T03:03:34.910Z,94771.00
2023-04-30T03:04:34.865Z,94771.00
2023-04-30T03:05:34.848Z,94771.00
2023-04-30T03:06:34.981Z,94771.00
2023-04-30T03:07:34.866Z,94773.00
2023-04-30T03:08:34.864Z,94775.00
2023-04-30T03:09:34.874Z,94775.00
2023-04-30T03:10:34.905Z,94779.00
2023-04-30T03:11:34.873Z,94779.00
2023-04-30T03:12:34.890Z,94777.00
2023-04-30T03:13:34.895Z,94777.00
2023-04-30T03:14:34.899Z,94777.00
2023-04-30T03:15:34.912Z,94771.00
2023-04-30T03:16:34.940Z,94773.00
2023-04-30T03:17:34.951Z,94771.00
2023-04-30T03:18:34.931Z,94773.00
2023-04-30T03:19:34.916Z,94771.00
2023-04-30T03:20:34.929Z,94769.00
2023-04-30T03:21:34.934Z,94771.00
2023-04-30T03:22:34.942Z,94771.00
2023-04-30T03:23:34.996Z,94771.00
2023-04-30T03:24:34.970Z,94771.00
2023-04-30T03:25:34.959Z,94769.00
2023-04-30T03:26:34.965Z,94767.00
2023-04-30T03:27:34.977Z,94769.00
2023-04-30T03:28:34.990Z,94769.00
2023-04-30T03:29:35.036Z,94769.00
2023-04-30T03:30:35.008Z,94767.00
2023-04-30T03:31:35.123Z,94769.00
2023-04-30T03:32:35.098Z,94771.00
2023-04-30T03:33:35.084Z,94769.00
2023-04-30T03:34:35.044Z,94769.00
2023-04-30T03:35:35.045Z,94769.00
2023-04-30T03:36:35.075Z,94767.00
2023-04-30T03:37:35.051Z,94767.00
2023-04-30T03:38:35.108Z,94767.00
2023-04-30T03:39:35.088Z,94765.00
2023-04-30T03:40:35.070Z,94767.00
2023-04-30T03:41:35.165Z,94765.00
2023-04-30T03:42:35.100Z,94765.00
2023-04-30T03:43:35.106Z,94765.00
2023-04-30T03:44:35.105Z,94763.00
2023-04-30T03:45:35.103Z,94763.00
2023-04-30T03:46:35.146Z,94767.00
2023-04-30T03:47:35.186Z,94767.00
2023-04-30T03:48:35.131Z,94767.00
2023-04-30T03:49:35.156Z,94765.00
2023-04-30T03:50:35.177Z,94771.00
2023-04-30T03:51:35.191Z,94767.00
2023-04-30T03:52:35.181Z,94769.00
2023-04-30T03:53:35.200Z,94769.00
2023-04-30T03:54:35.210Z,94769.00
2023-04-30T03:55:35.236Z,94769.00
2023-04-30T03:56:35.228Z,94771.00
2023-04-30T03:57:35.234Z,94773.00
2023-04-30T03:58:35.258Z,94773.00
2023-04-30T03:59:35.318Z,94773.00
2023-04-30T04:00:35.293Z,94773.00
2023-04-30T04:01:35.351Z,94773.00
2023-04-30T04:02:35.381Z,94773.00
2023-04-30T04:03:35.351Z,94773.00
2023-04-30T04:04:35.369Z,94773.00
2023-04-30T04:05:35.332Z,94773.00
2023-04-30T04:06:35.431Z,94775.00
2023-04-30T04:07:35.364Z,94773.00
2023-04-30T04:08:35.388Z,94773.00
2023-04-30T04:09:35.409Z,94775.00
2023-04-30T04:10:35.431Z,94773.00
2023-04-30T04:11:35.441Z,94773.00
2023-04-30T04:12:35.434Z,94773.00
2023-04-30T04:13:35.488Z,94771.00
2023-04-30T04:14:35.472Z,94773.00
2023-04-30T04:15:35.494Z,94771.00
2023-04-30T04:16:35.631Z,94773.00
2023-04-30T04:17:35.540Z,94773.00
2023-04-30T04:18:35.528Z,94771.00
2023-04-30T04:19:35.554Z,94771.00
2023-04-30T04:20:35.527Z,94771.00
2023-04-30T04:21:35.572Z,94773.00
2023-04-30T04:22:35.538Z,94773.00
2023-04-30T04:23:35.585Z,94773.00
2023-04-30T04:24:35.620Z,94775.00
2023-04-30T04:25:35.599Z,94773.00
2023-04-30T04:26:35.592Z,94773.00
2023-04-30T04:27:35.643Z,94773.00
2023-04-30T04:28:35.681Z,94775.00
2023-04-30T04:29:35.617Z,94773.00
2023-04-30T04:30:35.616Z,94771.00
2023-04-30T04:31:35.694Z,94773.00
2023-04-30T04:32:35.684Z,94773.00
2023-04-30T04:33:35.668Z,94775.00
2023-04-30T04:34:35.718Z,94777.00
2023-04-30T04:35:35.684Z,94775.00
2023-04-30T04:36:35.688Z,94775.00
2023-04-30T04:37:35.705Z,94773.00
2023-04-30T04:38:35.730Z,94775.00
2023-04-30T04:39:35.775Z,94775.00
2023-04-30T04:40:35.742Z,94775.00
2023-04-30T04:41:35.763Z,94775.00
2023-04-30T04:42:35.799Z,94775.00
2023-04-30T04:43:35.792Z,94775.00
2023-04-30T04:44:35.817Z,94775.00
2023-04-30T04:45:35.843Z,94781.00
2023-04-30T04:46:35.896Z,94781.00
2023-04-30T04:47:35.842Z,94773.00
2023-04-30T04:48:35.870Z,94775.00
2023-04-30T04:49:35.860Z,94773.00
2023-04-30T04:50:35.873Z,94775.00
2023-04-30T04:51:35.885Z,94775.00
2023-04-30T04:52:35.900Z,94777.00
2023-04-30T04:53:35.901Z,94777.00
2023-04-30T04:54:35.952Z,94775.00
2023-04-30T04:55:35.946Z,94777.00
2023-04-30T04:56:35.940Z,94777.00
2023-04-30T04:57:35.949Z,94779.00
2023-04-30T04:58:35.967Z,94777.00
2023-04-30T04:59:35.993Z,94777.00
2023-04-30T05:00:35.982Z,94777.00
2023-04-30T05:01:36.068Z,94773.00
2023-04-30T05:02:36.119Z,94775.00
2023-04-30T05:03:36.112Z,94775.00
2023-04-30T05:04:36.031Z,94777.00
2023-04-30T05:05:36.061Z,94775.00
2023-04-30T05:06:36.372Z,94779.00
2023-04-30T05:07:36.131Z,94781.00
2023-04-30T05:08:36.059Z,94777.00
2023-04-30T05:09:36.091Z,94775.00
2023-04-30T05:10:36.098Z,94781.00
2023-04-30T05:11:36.102Z,94783.00
2023-04-30T05:12:36.083Z,94783.00
2023-04-30T05:13:36.120Z,94783.00
2023-04-30T05:14:36.122Z,94779.00
2023-04-30T05:15:36.134Z,94781.00
2023-04-30T05:16:36.177Z,94775.00
2023-04-30T05:17:36.173Z,94773.00
2023-04-30T05:18:36.147Z,94779.00
2023-04-30T05:19:36.189Z,94777.00
2023-04-30T05:20:36.234Z,94777.00
2023-04-30T05:21:36.173Z,94779.00
2023-04-30T05:22:36.192Z,94777.00
2023-04-30T05:23:36.183Z,94773.00
2023-04-30T05:24:36.232Z,94775.00
2023-04-30T05:25:36.211Z,94777.00
2023-04-30T05:26:36.238Z,94781.00
2023-04-30T05:27:36.242Z,94777.00
2023-04-30T05:28:36.228Z,94781.00
2023-04-30T05:29:36.296Z,94777.00
2023-04-30T05:30:36.299Z,94785.00
2023-04-30T05:31:36.316Z,94777.00
2023-04-30T05:32:36.343Z,94779.00
2023-04-30T05:33:36.294Z,94779.00
2023-04-30T05:34:36.326Z,94783.00
2023-04-30T05:35:36.396Z,94777.00
2023-04-30T05:36:36.339Z,94783.00
2023-04-30T05:37:36.343Z,94783.00
2023-04-30T05:38:36.333Z,94777.00
2023-04-30T05:39:36.345Z,94781.00
2023-04-30T05:40:36.358Z,94775.00
2023-04-30T05:41:36.386Z,94777.00
2023-04-30T05:42:36.379Z,94777.00
2023-04-30T05:43:36.386Z,94775.00
2023-04-30T05:44:36.421Z,94777.00
2023-04-30T05:45:36.461Z,94781.00
2023-04-30T05:46:36.432Z,94777.00
2023-04-30T05:47:36.481Z,94777.00
2023-04-30T05:48:36.450Z,94777.00
2023-04-30T05:49:36.530Z,94779.00
2023-04-30T05:50:36.473Z,94777.00
2023-04-30T05:51:36.494Z,94777.00
2023-04-30T05:52:36.520Z,94779.00
2023-04-30T05:53:36.502Z,94779.00
2023-04-30T05:54:36.555Z,94781.00
2023-04-30T05:55:36.552Z,94779.00
2023-04-30T05:56:36.551Z,94781.00
2023-04-30T05:57:36.558Z,94781.00
2023-04-30T05:58:36.580Z,94779.00
2023-04-30T05:59:36.584Z,94781.00
2023-04-30T06:00:36.587Z,94781.00
2023-04-30T06:01:36.667Z,94781.00
2023-04-30T06:02:36.830Z,94781.00
2023-04-30T06:03:36.618Z,94781.00
2023-04-30T06:04:36.676Z,94781.00
2023-04-30T06:05:36.693Z,94785.00
2023-04-30T06:06:36.751Z,94785.00
2023-04-30T06:07:36.697Z,94783.00
2023-04-30T06:08:36.691Z,94783.00
2023-04-30T06:09:36.717Z,94788.00
2023-04-30T06:10:36.757Z,94787.00
2023-04-30T06:11:36.760Z,94787.00
2023-04-30T06:12:36.762Z,94787.00
2023-04-30T06:13:36.774Z,94783.00
2023-04-30T06:14:36.780Z,94787.00
2023-04-30T06:15:36.789Z,94787.00
2023-04-30T06:16:36.840Z,94781.00
2023-04-30T06:17:36.802Z,94787.00
2023-04-30T06:18:36.958Z,94785.00
2023-04-30T06:19:36.819Z,94787.00
2023-04-30T06:20:36.842Z,94788.00
2023-04-30T06:21:36.875Z,94788.00
2023-04-30T06:22:36.884Z,94783.00
2023-04-30T06:23:36.882Z,94790.00
2023-04-30T06:24:36.900Z,94790.00
2023-04-30T06:25:36.897Z,94790.00
2023-04-30T06:26:38.366Z,94790.00
2023-04-30T06:27:38.817Z,94790.00
2023-04-30T06:28:36.953Z,94790.00
2023-04-30T06:29:36.949Z,94790.00
2023-04-30T06:30:36.954Z,94792.00
2023-04-30T06:31:37.028Z,94792.00
2023-04-30T06:32:37.007Z,94790.00
2023-04-30T06:33:36.997Z,94792.00
2023-04-30T06:34:37.044Z,94790.00
2023-04-30T06:35:37.118Z,94794.00
2023-04-30T06:36:37.024Z,94792.00
2023-04-30T06:37:37.096Z,94790.00
2023-04-30T06:38:37.040Z,94790.00
2023-04-30T06:39:37.083Z,94790.00
2023-04-30T06:40:37.063Z,94790.00
2023-04-30T06:41:37.073Z,94788.00
2023-04-30T06:42:37.113Z,94792.00
2023-04-30T06:43:37.150Z,94790.00
2023-04-30T06:44:37.136Z,94790.00
2023-04-30T06:45:37.125Z,94788.00
2023-04-30T06:46:37.177Z,94792.00
2023-04-30T06:47:37.187Z,94790.00
2023-04-30T06:48:37.151Z,94790.00
2023-04-30T06:49:37.176Z,94790.00
2023-04-30T06:50:37.161Z,94790.00
2023-04-30T06:51:37.191Z,94792.00
2023-04-30T06:52:37.190Z,94794.00
2023-04-30T06:53:37.239Z,94790.00
2023-04-30T06:54:37.196Z,94792.00
2023-04-30T06:55:37.230Z,94792.00
2023-04-30T06:56:37.214Z,94792.00
2023-04-30T06:57:37.252Z,94792.00
2023-04-30T06:58:37.238Z,94792.00
2023-04-30T06:59:37.235Z,94792.00
2023-04-30T07:00:37.241Z,94790.00
2023-04-30T07:01:37.301Z,94792.00
2023-04-30T07:02:37.303Z,94792.00
2023-04-30T07:03:37.432Z,94792.00
2023-04-30T07:04:37.306Z,94792.00
2023-04-30T07:05:37.290Z,94790.00
2023-04-30T07:06:37.949Z,94790.00
2023-04-30T07:07:37.285Z,94792.00
2023-04-30T07:08:37.308Z,94794.00
2023-04-30T07:09:37.339Z,94792.00
2023-04-30T07:10:37.289Z,94788.00
2023-04-30T07:11:37.294Z,94788.00
2023-04-30T07:12:37.368Z,94788.00
2023-04-30T07:13:37.378Z,94785.00
2023-04-30T07:14:37.365Z,94787.00
2023-04-30T07:15:37.369Z,94787.00
2023-04-30T07:16:37.366Z,94785.00
2023-04-30T07:17:37.392Z,94787.00
2023-04-30T07:18:37.369Z,94787.00
2023-04-30T07:19:37.408Z,94783.00
2023-04-30T07:20:37.376Z,94785.00
2023-04-30T07:21:37.401Z,94787.00
2023-04-30T07:22:37.389Z,94785.00
2023-04-30T07:23:37.394Z,94785.00
2023-04-30T07:24:37.441Z,94787.00
2023-04-30T07:25:37.414Z,94785.00
2023-04-30T07:26:37.403Z,94787.00
2023-04-30T07:27:37.435Z,94787.00
2023-04-30T07:28:37.455Z,94787.00
2023-04-30T07:29:37.450Z,94787.00
2023-04-30T07:30:37.466Z,94787.00
2023-04-30T07:31:37.478Z,94785.00
2023-04-30T07:32:37.507Z,94785.00
2023-04-30T07:33:37.469Z,94785.00
2023-04-30T07:34:37.475Z,94783.00
2023-04-30T07:35:37.469Z,94783.00
2023-04-30T07:36:37.467Z,94781.00
2023-04-30T07:37:39.066Z,94781.00
2023-04-30T07:38:37.472Z,94777.00
2023-04-30T07:39:37.526Z,94777.00
2023-04-30T07:40:37.609Z,94779.00
2023-04-30T07:41:37.445Z,94777.00
2023-04-30T07:42:37.437Z,94777.00
2023-04-30T07:43:37.447Z,94775.00
2023-04-30T07:44:37.413Z,94775.00
2023-04-30T07:45:37.417Z,94773.00
2023-04-30T07:46:37.484Z,94773.00
2023-04-30T07:47:37.451Z,94773.00
2023-04-30T07:48:37.384Z,94771.00
2023-04-30T07:49:37.382Z,94773.00
2023-04-30T07:50:37.383Z,94775.00
2023-04-30T07:51:37.359Z,94775.00
2023-04-30T07:52:37.359Z,94777.00
2023-04-30T07:53:37.358Z,94775.00
2023-04-30T07:54:37.341Z,94775.00
2023-04-30T07:55:37.329Z,94777.00
2023-04-30T07:56:37.335Z,94775.00
2023-04-30T07:57:37.355Z,94773.00
2023-04-30T07:58:37.308Z,94773.00
2023-04-30T07:59:37.302Z,94773.00
2023-04-30T08:00:37.304Z,94773.00
2023-04-30T08:01:37.356Z,94773.00
2023-04-30T08:02:37.399Z,94775.00
2023-04-30T08:03:37.383Z,94773.00
2023-04-30T08:04:37.348Z,94775.00
2023-04-30T08:05:37.274Z,94775.00
2023-04-30T08:06:37.332Z,94775.00
2023-04-30T08:07:37.268Z,94775.00
2023-04-30T08:08:37.258Z,94775.00
2023-04-30T08:09:37.320Z,94775.00
2023-04-30T08:10:37.255Z,94773.00
2023-04-30T08:11:37.300Z,94771.00
2023-04-30T08:12:37.237Z,94773.00
2023-04-30T08:13:37.243Z,94775.00
2023-04-30T08:14:37.245Z,94773.00
2023-04-30T08:15:37.215Z,94771.00
2023-04-30T08:16:37.241Z,94771.00
2023-04-30T08:17:37.252Z,94767.00
2023-04-30T08:18:37.185Z,94767.00
2023-04-30T08:19:37.186Z,94767.00
2023-04-30T08:20:38.546Z,94767.00
2023-04-30T08:21:37.189Z,94763.00
2023-04-30T08:22:37.153Z,94763.00
2023-04-30T08:23:37.158Z,94763.00
2023-04-30T08:24:37.177Z,94759.00
2023-04-30T08:25:37.109Z,94765.00
2023-04-30T08:26:37.122Z,94763.00
2023-04-30T08:27:37.216Z,94761.00
2023-04-30T08:28:37.104Z,94759.00
2023-04-30T08:29:37.079Z,94759.00
2023-04-30T08:30:37.101Z,94759.00
2023-04-30T08:31:37.130Z,94757.00
2023-04-30T08:32:37.143Z,94759.00
2023-04-30T08:33:37.057Z,94757.00
2023-04-30T08:34:37.066Z,94759.00
2023-04-30T08:35:37.075Z,94757.00
2023-04-30T08:36:37.042Z,94755.00
2023-04-30T08:37:37.065Z,94753.00
2023-04-30T08:38:37.023Z,94755.00
2023-04-30T08:39:37.045Z,94757.00
2023-04-30T08:40:50.427Z,94755.00
2023-04-30T08:41:38.005Z,94755.00
2023-04-30T08:42:37.008Z,94755.00
2023-04-30T08:43:36.983Z,94757.00
2023-04-30T08:44:36.986Z,94755.00
2023-04-30T08:45:37.002Z,94753.00
2023-04-30T08:46:37.067Z,94755.00
2023-04-30T08:47:37.015Z,94755.00
2023-04-30T08:48:36.958Z,94751.00
2023-04-30T08:49:36.965Z,94755.00
2023-04-30T08:50:36.964Z,94755.00
2023-04-30T08:51:36.962Z,94753.00
2023-04-30T08:52:36.932Z,94751.00
2023-04-30T08:53:36.916Z,94749.00
2023-04-30T08:54:36.916Z,94751.00
2023-04-30T08:55:36.943Z,94747.00
2023-04-30T08:56:36.880Z,94747.00
2023-04-30T08:57:36.869Z,94745.00
2023-04-30T08:58:36.883Z,94747.00
2023-04-30T08:59:36.885Z,94745.00
2023-04-30T09:00:36.871Z,94747.00
2023-04-30T09:01:36.908Z,94749.00
2023-04-30T09:02:36.940Z,94747.00
2023-04-30T09:03:36.914Z,94749.00
2023-04-30T09:04:36.847Z,94747.00
2023-04-30T09:05:36.865Z,94747.00
2023-04-30T09:06:36.946Z,94747.00
2023-04-30T09:07:36.972Z,94745.00
2023-04-30T09:08:36.824Z,94749.00
2023-04-30T09:09:36.798Z,94747.00
2023-04-30T09:10:36.807Z,94747.00
2023-04-30T09:11:36.796Z,94749.00
2023-04-30T09:12:36.790Z,94749.00
2023-04-30T09:13:36.789Z,94745.00
2023-04-30T09:14:36.786Z,94745.00
2023-04-30T09:15:36.825Z,94745.00
2023-04-30T09:16:36.900Z,94747.00
2023-04-30T09:17:36.918Z,94745.00
2023-04-30T09:18:36.954Z,94745.00
2023-04-30T09:19:37.269Z,94745.00
2023-04-30T09:20:37.040Z,94745.00
2023-04-30T09:21:37.093Z,94745.00
2023-04-30T09:22:37.159Z,94743.00
2023-04-30T09:23:37.198Z,94743.00
2023-04-30T09:24:37.266Z,94741.00
2023-04-30T09:25:37.353Z,94737.00
2023-04-30T09:26:37.374Z,94739.00
2023-04-30T09:27:37.436Z,94737.00
2023-04-30T09:28:37.501Z,94739.00
2023-04-30T09:29:37.563Z,94737.00
2023-04-30T09:30:37.636Z,94735.00
2023-04-30T09:31:37.949Z,94737.00
2023-04-30T09:32:37.833Z,94732.00
2023-04-30T09:33:37.818Z,94732.00
2023-04-30T09:34:37.865Z,94728.00
2023-04-30T09:35:38.002Z,94728.00
2023-04-30T09:36:38.042Z,94724.00
2023-04-30T09:37:38.117Z,94728.00
2023-04-30T09:38:38.136Z,94726.00
2023-04-30T09:39:38.192Z,94724.00
2023-04-30T09:40:38.299Z,94724.00
2023-04-30T09:41:38.299Z,94720.00
2023-04-30T09:42:38.371Z,94720.00
2023-04-30T09:43:38.441Z,94718.00
2023-04-30T09:44:38.538Z,94720.00
2023-04-30T09:45:38.577Z,94716.00
2023-04-30T09:46:38.673Z,94714.00
2023-04-30T09:47:38.680Z,94714.00
2023-04-30T09:48:38.782Z,94710.00
2023-04-30T09:49:38.772Z,94708.00
2023-04-30T09:50:39.580Z,94706.00
2023-04-30T09:51:38.892Z,94706.00
2023-04-30T09:52:38.967Z,94706.00
2023-04-30T09:53:39.001Z,94706.00
2023-04-30T09:54:39.072Z,94708.00
2023-04-30T09:55:39.131Z,94710.00
2023-04-30T09:56:39.183Z,94706.00
2023-04-30T09:57:39.259Z,94704.00
2023-04-30T09:58:39.290Z,94702.00
2023-04-30T09:59:39.369Z,94700.00
2023-04-30T10:00:39.440Z,94700.00
2023-04-30T10:01:41.045Z,94698.00
2023-04-30T10:02:39.531Z,94698.00
2023-04-30T10:03:39.649Z,94694.00
2023-04-30T10:04:39.663Z,94696.00
2023-04-30T10:05:39.669Z,94692.00
2023-04-30T10:06:39.764Z,94688.00
2023-04-30T10:07:39.801Z,94690.00
2023-04-30T10:08:39.819Z,94688.00
2023-04-30T10:09:39.884Z,94690.00
2023-04-30T10:10:39.960Z,94686.00
2023-04-30T10:11:40.004Z,94686.00
2023-04-30T10:12:40.052Z,94683.00
2023-04-30T10:13:40.081Z,94683.00
2023-04-30T10:14:40.118Z,94679.00
2023-04-30T10:15:40.184Z,94683.00
2023-04-30T10:16:40.252Z,94679.00
2023-04-30T10:17:40.296Z,94681.00
2023-04-30T10:18:40.315Z,94677.00
2023-04-30T10:19:40.341Z,94673.00
2023-04-30T10:20:40.405Z,94671.00
2023-04-30T10:21:40.421Z,94669.00
2023-04-30T10:22:40.491Z,94669.00
2023-04-30T10:23:40.507Z,94667.00
2023-04-30T10:24:40.595Z,94665.00
2023-04-30T10:25:40.604Z,94659.00
2023-04-30T10:26:40.626Z,94663.00
2023-04-30T10:27:40.674Z,94659.00
2023-04-30T10:28:40.778Z,94657.00
2023-04-30T10:29:40.729Z,94657.00
2023-04-30T10:30:40.791Z,94657.00
2023-04-30T10:31:40.877Z,94655.00
2023-04-30T10:32:40.875Z,94655.00
2023-04-30T10:33:40.977Z,94653.00
2023-04-30T10:34:40.984Z,94651.00
2023-04-30T10:35:40.986Z,94653.00
2023-04-30T10:36:40.960Z,94647.00
2023-04-30T10:37:41.004Z,94645.00
2023-04-30T10:38:41.044Z,94643.00
2023-04-30T10:39:41.121Z,94647.00
2023-04-30T10:40:41.142Z,94643.00
2023-04-30T10:41:41.155Z,94643.00
2023-04-30T10:42:41.171Z,94641.00
2023-04-30T10:43:41.191Z,94641.00
2023-04-30T10:44:41.262Z,94639.00
2023-04-30T10:45:41.302Z,94639.00
2023-04-30T10:46:41.398Z,94635.00
2023-04-30T10:47:41.448Z,94637.00
2023-04-30T10:48:41.368Z,94635.00
2023-04-30T10:49:41.379Z,94633.00
2023-04-30T10:50:43.450Z,94633.00
2023-04-30T10:51:41.430Z,94624.00
2023-04-30T10:52:41.398Z,94624.00
2023-04-30T10:53:41.433Z,94624.00
2023-04-30T10:54:41.384Z,94622.00
2023-04-30T10:55:41.407Z,94620.00
2023-04-30T10:56:41.380Z,94616.00
2023-04-30T10:57:41.367Z,94616.00
2023-04-30T10:58:41.416Z,94612.00
2023-04-30T10:59:41.388Z,94612.00
2023-04-30T11:00:43.116Z,94610.00
2023-04-30T11:01:41.435Z,94608.00
2023-04-30T11:02:41.481Z,94610.00
2023-04-30T11:03:41.418Z,94606.00
2023-04-30T11:04:41.476Z,94606.00
2023-04-30T11:05:41.492Z,94604.00
2023-04-30T11:06:43.423Z,94604.00
2023-04-30T11:07:41.512Z,94600.00
2023-04-30T11:08:41.492Z,94600.00
2023-04-30T11:09:41.471Z,94600.00
2023-04-30T11:10:41.479Z,94596.00
2023-04-30T11:11:41.458Z,94596.00
2023-04-30T11:12:41.485Z,94592.00
2023-04-30T11:13:41.444Z,94592.00
2023-04-30T11:14:41.478Z,94588.00
2023-04-30T11:16:41.458Z,94586.00
2023-04-30T11:17:41.454Z,94588.00
2023-04-30T11:18:41.425Z,94583.00
2023-04-30T11:19:41.408Z,94585.00
2023-04-30T11:20:41.419Z,94583.00
2023-04-30T11:21:41.398Z,94581.00
2023-04-30T11:22:41.409Z,94579.00
2023-04-30T11:23:42.261Z,94579.00
2023-04-30T11:24:41.399Z,94575.00
2023-04-30T11:25:41.362Z,94579.00
2023-04-30T11:26:41.380Z,94575.00
2023-04-30T11:27:41.348Z,94575.00
2023-04-30T11:28:41.358Z,94573.00
2023-04-30T11:29:41.316Z,94571.00
2023-04-30T11:30:41.351Z,94571.00
2023-04-30T11:31:41.383Z,94569.00
2023-04-30T11:32:41.352Z,94569.00
2023-04-30T11:33:41.304Z,94567.00
2023-04-30T11:34:41.328Z,94567.00
2023-04-30T11:35:41.285Z,94565.00
2023-04-30T11:36:41.264Z,94563.00
2023-04-30T11:37:41.288Z,94561.00
2023-04-30T11:38:41.262Z,94559.00
2023-04-30T11:39:41.263Z,94559.00
2023-04-30T11:40:41.272Z,94557.00
2023-04-30T11:41:41.268Z,94555.00
2023-04-30T11:42:42.050Z,94553.00
2023-04-30T11:43:41.241Z,94553.00
2023-04-30T11:44:41.263Z,94555.00
2023-04-30T11:45:41.228Z,94557.00